Buoy 21952

sailwx.info

Track history (hours):
 
Tides and Currents Weather Stations Pressure Air Temp Water Temp Dewpoint Dewpoint Depression Visibility Wind Speed Wind Dir Waves Ship Positions

Drifting buoy 21952

Last reported at 2017-Nov-24 08:00 UTC. Time now 2017-Nov-24 12:53 UTC.
Position N 31°44' W 145°53'.

Barometer 1021.1 mb
Water temperature 20.9 ° C

Date/timePositionNaut miles runAvg speedWind from/ knotsBaromVisibWave heightAir tempDewpointWater temp
2017-Nov-24 08:00N 31°44' W 145°53'1 0.3 1021.1 20.9
2017-Nov-24 06:00N 31°44' W 145°53'1 0.8 1021.6 20.9
2017-Nov-24 05:00N 31°45' W 145°52'0 0.0 1021.6 20.9
2017-Nov-24 04:00N 31°45' W 145°52'1 0.8 1021.1 20.9
2017-Nov-24 03:00N 31°46' W 145°52'1 0.8 1020.5 20.9
2017-Nov-24 02:00N 31°46' W 145°51'0 0.0 1020.2 20.9
2017-Nov-24 01:00N 31°46' W 145°51'1 0.5 1020.1 20.9
2017-Nov-24 00:00N 31°46' W 145°50'0 0.0 1020.0 20.9
2017-Nov-23 23:00N 31°46' W 145°50'1 0.6 1020.1 20.8
2017-Nov-23 22:00N 31°47' W 145°50'2 1.6 1020.7 20.8
2017-Nov-23 21:00N 31°46' W 145°49'0 0.0 1021.3 20.8
2017-Nov-23 20:00N 31°46' W 145°49'0 0.0 1021.6 20.8
2017-Nov-23 19:00N 31°46' W 145°49'1 0.5 1021.2 20.8
2017-Nov-23 18:00N 31°46' W 145°48'0 0.0 1020.9 20.8
2017-Nov-23 17:00N 31°46' W 145°48'2 1.9 1020.3 20.9
2017-Nov-23 16:00N 31°47' W 145°46'1 0.6 1019.6 21.0
2017-Nov-23 15:00N 31°47' W 145°46'1 1.2 1019.0 21.0
2017-Nov-23 14:00N 31°47' W 145°47'2 2.0 1018.7 21.1
2017-Nov-23 13:00N 31°47' W 145°45'1 0.1 1018.6 21.1
2017-Nov-23 07:00N 31°48' W 145°46'0 0.0 1018.0 21.3
2017-Nov-23 06:00N 31°48' W 145°46'0 0.0 1017.4 21.3
2017-Nov-23 05:00N 31°48' W 145°46'1 1.2 1017.0 21.3
2017-Nov-23 04:00N 31°49' W 145°46'1 1.3 1016.2 21.3
2017-Nov-23 03:00N 31°50' W 145°46'1 0.6 1015.4 21.3
2017-Nov-23 02:00N 31°50' W 145°46'1 1.3 1014.8 21.4
2017-Nov-23 01:00N 31°51' W 145°47'1 0.8 1014.3 21.4
2017-Nov-23 00:00N 31°52' W 145°47'0 0.0 1013.8 21.4
2017-Nov-22 23:00N 31°52' W 145°47'1 0.8 1013.5 21.4
2017-Nov-22 22:00N 31°52' W 145°48'1 0.4 1014.3 21.4
2017-Nov-22 20:00N 31°53' W 145°49'1 1.2 1014.4 21.4
2017-Nov-22 19:00N 31°53' W 145°50'1 0.6 1013.8 21.4
2017-Nov-22 18:00N 31°54' W 145°50'0 0.0 1013.0 21.5
2017-Nov-22 17:00N 31°54' W 145°50'2 1.9 1012.2 21.5
2017-Nov-22 16:00N 31°55' W 145°52'1 1.3 1011.1 21.6
2017-Nov-22 15:00N 31°56' W 145°51'2 1.1 1010.1 21.6
2017-Nov-22 13:00N 31°57' W 145°53'0 0.0 1008.5 21.5
2017-Nov-22 12:00N 31°57' W 145°53'5 4.7 1007.7 21.4
2017-Nov-22 11:00N 31°58' W 145°59'0 0.0 1007.5 21.5
2017-Nov-22 08:00N 31°58' W 145°59'1 1.0 1007.2 21.6
2017-Nov-22 07:00N 31°58' W 146°00'2 1.9 1006.7 21.6
2017-Nov-22 06:00N 31°59' W 146°02'2 1.5 1006.3 21.6
2017-Nov-22 05:00N 31°59' W 146°04'1 0.5 1005.9 21.7
2017-Nov-22 04:00N 31°59' W 146°04'2 1.6 1004.9 21.7
2017-Nov-22 03:00N 32°01' W 146°05'2 2.4 1004.2 21.8
2017-Nov-22 02:00N 32°02' W 146°08'1 0.5 1003.8 21.8
2017-Nov-22 01:00N 32°02' W 146°07'3 1.3 1003.0 21.8
2017-Nov-21 23:00N 32°02' W 146°10'4 1.4 1002.7 21.8
2017-Nov-21 20:00N 32°04' W 146°15'1 1.0 1003.8 21.9
2017-Nov-21 19:00N 32°04' W 146°16'1 0.5 1003.7 21.8
2017-Nov-21 18:00N 32°04' W 146°17'0 0.0 1003.1 21.7
2017-Nov-21 17:00N 32°04' W 146°17'1 1.0 1002.5 21.6
2017-Nov-21 16:00N 32°04' W 146°18'1 0.5 1002.2 21.6
2017-Nov-21 15:00N 32°04' W 146°19'1 1.0 1001.4 21.7
2017-Nov-21 14:00N 32°04' W 146°20'1 1.0 1001.2 21.7
2017-Nov-21 13:00N 32°04' W 146°21'0 0.0 1001.8 21.8
2017-Nov-21 12:00N 32°04' W 146°21'3 3.1 1001.8 21.8
2017-Nov-21 11:00N 32°04' W 146°25'1 0.2 1001.8 21.8
2017-Nov-21 07:00N 32°04' W 146°24'2 1.6 1001.0 21.8
2017-Nov-21 06:00N 32°05' W 146°26'1 0.6 1000.0 21.7
2017-Nov-21 05:00N 32°05' W 146°26'1 0.5 998.9 21.8
2017-Nov-21 04:00N 32°05' W 146°25'2 2.4 997.4 21.6
2017-Nov-21 03:00N 32°07' W 146°27'0 0.0 996.0 22.1
2017-Nov-21 01:00N 32°07' W 146°27'1 0.3 994.1 22.2
2017-Nov-20 23:00N 32°07' W 146°27'2 0.7 994.9 22.2
2017-Nov-20 20:00N 32°05' W 146°26'1 0.5 999.0 22.1
2017-Nov-20 19:00N 32°05' W 146°26'1 0.8 999.2 22.0
2017-Nov-20 18:00N 32°04' W 146°26'0 0.0 998.7 22.0
2017-Nov-20 17:00N 32°04' W 146°26'0 0.0 998.7 21.9
2017-Nov-20 16:00N 32°04' W 146°26'1 0.8 998.6 21.9
2017-Nov-20 15:00N 32°04' W 146°25'0 0.0 998.7 21.9
2017-Nov-20 14:00N 32°04' W 146°25'1 1.0 998.9 21.9
2017-Nov-20 13:00N 32°04' W 146°26'0 0.0 999.6 21.8
2017-Nov-20 12:00N 32°04' W 146°26'3 0.7 1000.0 21.6
2017-Nov-20 08:00N 32°02' W 146°29'1 0.5 1001.2 21.9
2017-Nov-20 07:00N 32°02' W 146°28'2 1.6 1001.0 22.0
2017-Nov-20 06:00N 32°01' W 146°29'1 0.8 1001.2 22.0
2017-Nov-20 05:00N 32°00' W 146°29'2 1.6 1000.9 22.0
2017-Nov-20 04:00N 31°59' W 146°30'2 1.8 1000.2 21.9
2017-Nov-20 03:00N 31°57' W 146°30'0 0.0 999.8 21.7
2017-Nov-20 02:00N 31°57' W 146°30'0 0.0 999.7 21.7
2017-Nov-20 01:00N 31°57' W 146°30'2 1.6 1000.0 21.9
2017-Nov-20 00:00N 31°56' W 146°31'0 0.0 1000.3 21.9
2017-Nov-19 23:00N 31°56' W 146°31'4 1.2 1001.2 21.9
2017-Nov-19 20:00N 31°53' W 146°34'2 1.9 1004.0 22.0
2017-Nov-19 19:00N 31°51' W 146°34'2 1.6 1004.2 22.0
2017-Nov-19 18:00N 31°50' W 146°36'2 2.5 1004.4 22.0
2017-Nov-19 17:00N 31°48' W 146°35'0 0.0 1004.1 22.1
2017-Nov-19 16:00N 31°48' W 146°35'0 0.0 1004.2 22.1
2017-Nov-19 15:00N 31°48' W 146°35'0 0.0 1003.8 22.1
2017-Nov-19 14:00N 31°48' W 146°35'1 0.5 1004.0 22.2
2017-Nov-19 13:00N 31°48' W 146°36'1 0.5 1004.4 22.2
2017-Nov-19 12:00N 31°48' W 146°37'2 0.5 1005.0 22.2
2017-Nov-19 08:00N 31°48' W 146°39'1 1.0 1007.3 22.2
2017-Nov-19 07:00N 31°48' W 146°40'1 0.5 1007.4 22.2
2017-Nov-19 06:00N 31°48' W 146°41'1 0.6 1006.9 22.3
2017-Nov-19 05:00N 31°47' W 146°41'1 0.8 1006.4 22.2
2017-Nov-19 04:00N 31°47' W 146°41'1 0.5 1006.0 22.3
2017-Nov-19 03:00N 31°47' W 146°42'1 1.2 1005.7 22.3
2017-Nov-19 02:00N 31°46' W 146°42'1 1.3 1005.5 22.4
2017-Nov-19 01:00N 31°44' W 146°43'0 0.0 1005.3 22.4
2017-Nov-19 00:00N 31°44' W 146°43'0 0.0 1005.7 22.4
2017-Nov-18 23:00N 31°44' W 146°43'2 0.8 1006.4 22.4
2017-Nov-18 20:00N 31°42' W 146°42'1 0.5 1008.9 22.2
2017-Nov-18 19:00N 31°42' W 146°41'1 1.3 1008.4 22.2
2017-Nov-18 18:00N 31°41' W 146°41'0 0.0 1009.2 22.1
2017-Nov-18 17:00N 31°41' W 146°41'1 0.8 1009.5 22.3
2017-Nov-18 16:00N 31°40' W 146°41'1 0.8 1008.8 22.3
2017-Nov-18 15:00N 31°40' W 146°41'1 0.8 1009.0 22.2
2017-Nov-18 14:00N 31°39' W 146°40'1 0.3 1008.5 22.2
2017-Nov-18 12:00N 31°39' W 146°41'5 1.0 1009.7 21.7
2017-Nov-18 07:00N 31°34' W 146°41'2 2.1 1013.0 21.6
2017-Nov-18 06:00N 31°34' W 146°38'1 0.8 1013.0 21.6
2017-Nov-18 05:00N 31°33' W 146°39'1 0.8 1013.3 21.6
2017-Nov-18 04:00N 31°32' W 146°38'1 1.0 1013.0 21.6
2017-Nov-18 03:00N 31°32' W 146°37'1 0.8 1013.1 21.6
2017-Nov-18 02:00N 31°32' W 146°37'1 0.8 1013.2 21.6
2017-Nov-18 01:00N 31°31' W 146°37'0 0.0 1013.5 22.0
2017-Nov-18 00:00N 31°31' W 146°37'2 2.5 1013.9 22.0
2017-Nov-17 23:00N 31°29' W 146°38'1 0.2 1014.2 22.1
2017-Nov-17 20:00N 31°28' W 146°38'1 0.6 1016.1 22.1
2017-Nov-17 19:00N 31°28' W 146°38'1 1.2 1016.4 22.1
2017-Nov-17 18:00N 31°27' W 146°37'1 1.2 1016.3 22.1
2017-Nov-17 17:00N 31°26' W 146°38'1 0.8 1016.2 22.1
2017-Nov-17 16:00N 31°26' W 146°37'1 1.3 1016.0 22.1
2017-Nov-17 15:00N 31°25' W 146°38'0 0.0 1015.9 22.0
2017-Nov-17 14:00N 31°25' W 146°38'1 1.3 1016.1 22.1
2017-Nov-17 13:00N 31°23' W 146°38'2 1.9 1016.4 22.1
2017-Nov-17 12:00N 31°22' W 146°40'0 0.0 1016.6 22.1
2017-Nov-17 07:00N 31°22' W 146°40'1 0.8 1018.7 22.2
2017-Nov-17 06:00N 31°22' W 146°40'1 0.8 1018.6 22.3
2017-Nov-17 05:00N 31°22' W 146°40'1 0.6 1018.5 22.3
2017-Nov-17 04:00N 31°22' W 146°40'1 0.6 1018.2 22.3
2017-Nov-17 03:00N 31°22' W 146°40'0 0.0 1018.2 22.3
2017-Nov-17 02:00N 31°22' W 146°40'1 0.6 1018.1 22.4
2017-Nov-17 01:00N 31°23' W 146°40'0 0.0 1018.0 22.4
2017-Nov-17 00:00N 31°23' W 146°40'3 3.0 1018.2 22.4
2017-Nov-16 23:00N 31°26' W 146°40'0 0.0 1018.6 22.4
2017-Nov-16 21:00N 31°26' W 146°40'1 0.8 1020.1 22.2
2017-Nov-16 20:00N 31°26' W 146°40'1 0.5 1020.8 22.1
2017-Nov-16 19:00N 31°26' W 146°41'1 0.5 1020.8 22.1
2017-Nov-16 18:00N 31°26' W 146°40'1 0.6 1020.6 22.0
2017-Nov-16 17:00N 31°27' W 146°40'0 0.0 1020.2 22.0
2017-Nov-16 16:00N 31°27' W 146°40'1 0.5 1019.7 21.9
2017-Nov-16 15:00N 31°27' W 146°40'1 1.2 1019.5 22.0
2017-Nov-16 14:00N 31°28' W 146°40'0 0.0 1019.5 22.2
2017-Nov-16 13:00N 31°28' W 146°40'3 3.2 1019.5 22.3
2017-Nov-16 12:00N 31°31' W 146°37'1 0.2 1019.7 22.4
2017-Nov-16 07:00N 31°31' W 146°36'0 0.0 1020.6 22.5
2017-Nov-16 06:00N 31°31' W 146°36'0 0.0 1020.4 22.5
2017-Nov-16 05:00N 31°31' W 146°36'1 0.8 1020.1 22.5
2017-Nov-16 04:00N 31°31' W 146°35'1 0.6 1019.7 22.5
2017-Nov-16 03:00N 31°32' W 146°35'0 0.0 1019.5 22.5
2017-Nov-16 00:00N 31°32' W 146°35'4 3.6 1019.0 22.5
2017-Nov-15 23:00N 31°35' W 146°35'0 0.0 1019.0 22.5
2017-Nov-15 22:00N 31°35' W 146°35'1 0.3 1019.6 22.5
2017-Nov-15 20:00N 31°35' W 146°36'1 0.8 1021.1 22.6
2017-Nov-15 19:00N 31°36' W 146°35'1 0.5 1021.0 22.6
2017-Nov-15 18:00N 31°36' W 146°35'1 1.3 1020.7 22.5
2017-Nov-15 17:00N 31°37' W 146°35'0 0.0 1020.4 22.5
2017-Nov-15 16:00N 31°37' W 146°35'1 0.8 1020.1 22.5
2017-Nov-15 15:00N 31°38' W 146°35'1 0.8 1019.8 22.5
2017-Nov-15 14:00N 31°38' W 146°34'3 2.7 1019.7 22.5
2017-Nov-15 13:00N 31°40' W 146°37'0 0.0 1019.8 22.4
2017-Nov-15 12:00N 31°40' W 146°37'1 0.3 1019.9 22.4
2017-Nov-15 08:00N 31°41' W 146°35'0 0.0 1021.2 22.4
2017-Nov-15 07:00N 31°41' W 146°35'1 0.5 1021.3 22.5
2017-Nov-15 06:00N 31°41' W 146°35'1 1.3 1021.0 22.5
2017-Nov-15 05:00N 31°42' W 146°34'1 0.5 1020.8 22.5
2017-Nov-15 04:00N 31°42' W 146°34'2 1.6 1020.4 22.5
2017-Nov-15 03:00N 31°43' W 146°32'1 1.2 1019.8 22.4
2017-Nov-15 02:00N 31°43' W 146°31'1 0.5 1019.3 22.2
2017-Nov-15 01:00N 31°43' W 146°31'1 1.2 1019.2 22.1
2017-Nov-15 00:00N 31°44' W 146°30'0 0.0 1019.2 22.0
2017-Nov-14 23:00N 31°44' W 146°30'2 2.4 1019.6 22.1
2017-Nov-14 22:00N 31°46' W 146°28'1 0.5 1020.2 22.1
2017-Nov-14 20:00N 31°46' W 146°27'2 1.6 1020.5 22.2
2017-Nov-14 19:00N 31°47' W 146°26'2 1.6 1021.2 22.2
2017-Nov-14 18:00N 31°47' W 146°24'0 0.0 1020.9 22.1
2017-Nov-14 17:00N 31°47' W 146°24'1 0.8 1020.5 22.1
2017-Nov-14 16:00N 31°47' W 146°25'3 2.7 1020.1 22.4
2017-Nov-14 15:00N 31°49' W 146°22'3 1.4 1019.8 22.6
2017-Nov-14 13:00N 31°50' W 146°20'0 0.0 1020.3 22.8
2017-Nov-14 11:00N 31°50' W 146°20'0 0.0 1020.4 22.7
2017-Nov-14 08:00N 31°50' W 146°20'   1021.3 22.8
Track history (hours):
 
Tides and Currents Weather Stations Pressure Air Temp Water Temp Dewpoint Dewpoint Depression Visibility Wind Speed Wind Dir Waves Ship Positions

Drifting buoy 21952

Last reported at 2017-Nov-24 08:00 UTC. Time now 2017-Nov-24 12:53 UTC.
Position N 31°44' W 145°53'.

Barometer 1021.1 mb
Water temperature 20.9 ° C

Date/timePositionNaut miles runAvg speedWind from/ knotsBaromVisibWave heightAir tempDewpointWater temp
2017-Nov-24 08:00N 31°44' W 145°53'1 0.3 1021.1 20.9
2017-Nov-24 06:00N 31°44' W 145°53'1 0.8 1021.6 20.9
2017-Nov-24 05:00N 31°45' W 145°52'0 0.0 1021.6 20.9
2017-Nov-24 04:00N 31°45' W 145°52'1 0.8 1021.1 20.9
2017-Nov-24 03:00N 31°46' W 145°52'1 0.8 1020.5 20.9
2017-Nov-24 02:00N 31°46' W 145°51'0 0.0 1020.2 20.9
2017-Nov-24 01:00N 31°46' W 145°51'1 0.5 1020.1 20.9
2017-Nov-24 00:00N 31°46' W 145°50'0 0.0 1020.0 20.9
2017-Nov-23 23:00N 31°46' W 145°50'1 0.6 1020.1 20.8
2017-Nov-23 22:00N 31°47' W 145°50'2 1.6 1020.7 20.8
2017-Nov-23 21:00N 31°46' W 145°49'0 0.0 1021.3 20.8
2017-Nov-23 20:00N 31°46' W 145°49'0 0.0 1021.6 20.8
2017-Nov-23 19:00N 31°46' W 145°49'1 0.5 1021.2 20.8
2017-Nov-23 18:00N 31°46' W 145°48'0 0.0 1020.9 20.8
2017-Nov-23 17:00N 31°46' W 145°48'2 1.9 1020.3 20.9
2017-Nov-23 16:00N 31°47' W 145°46'1 0.6 1019.6 21.0
2017-Nov-23 15:00N 31°47' W 145°46'1 1.2 1019.0 21.0
2017-Nov-23 14:00N 31°47' W 145°47'2 2.0 1018.7 21.1
2017-Nov-23 13:00N 31°47' W 145°45'1 0.1 1018.6 21.1
2017-Nov-23 07:00N 31°48' W 145°46'0 0.0 1018.0 21.3
2017-Nov-23 06:00N 31°48' W 145°46'0 0.0 1017.4 21.3
2017-Nov-23 05:00N 31°48' W 145°46'1 1.2 1017.0 21.3
2017-Nov-23 04:00N 31°49' W 145°46'1 1.3 1016.2 21.3
2017-Nov-23 03:00N 31°50' W 145°46'1 0.6 1015.4 21.3
2017-Nov-23 02:00N 31°50' W 145°46'1 1.3 1014.8 21.4
2017-Nov-23 01:00N 31°51' W 145°47'1 0.8 1014.3 21.4
2017-Nov-23 00:00N 31°52' W 145°47'0 0.0 1013.8 21.4
2017-Nov-22 23:00N 31°52' W 145°47'1 0.8 1013.5 21.4
2017-Nov-22 22:00N 31°52' W 145°48'1 0.4 1014.3 21.4
2017-Nov-22 20:00N 31°53' W 145°49'1 1.2 1014.4 21.4
2017-Nov-22 19:00N 31°53' W 145°50'1 0.6 1013.8 21.4
2017-Nov-22 18:00N 31°54' W 145°50'0 0.0 1013.0 21.5
2017-Nov-22 17:00N 31°54' W 145°50'2 1.9 1012.2 21.5
2017-Nov-22 16:00N 31°55' W 145°52'1 1.3 1011.1 21.6
2017-Nov-22 15:00N 31°56' W 145°51'2 1.1 1010.1 21.6
2017-Nov-22 13:00N 31°57' W 145°53'0 0.0 1008.5 21.5
2017-Nov-22 12:00N 31°57' W 145°53'5 4.7 1007.7 21.4
2017-Nov-22 11:00N 31°58' W 145°59'0 0.0 1007.5 21.5
2017-Nov-22 08:00N 31°58' W 145°59'1 1.0 1007.2 21.6
2017-Nov-22 07:00N 31°58' W 146°00'2 1.9 1006.7 21.6
2017-Nov-22 06:00N 31°59' W 146°02'2 1.5 1006.3 21.6
2017-Nov-22 05:00N 31°59' W 146°04'1 0.5 1005.9 21.7
2017-Nov-22 04:00N 31°59' W 146°04'2 1.6 1004.9 21.7
2017-Nov-22 03:00N 32°01' W 146°05'2 2.4 1004.2 21.8
2017-Nov-22 02:00N 32°02' W 146°08'1 0.5 1003.8 21.8
2017-Nov-22 01:00N 32°02' W 146°07'3 1.3 1003.0 21.8
2017-Nov-21 23:00N 32°02' W 146°10'4 1.4 1002.7 21.8
2017-Nov-21 20:00N 32°04' W 146°15'1 1.0 1003.8 21.9
2017-Nov-21 19:00N 32°04' W 146°16'1 0.5 1003.7 21.8
2017-Nov-21 18:00N 32°04' W 146°17'0 0.0 1003.1 21.7
2017-Nov-21 17:00N 32°04' W 146°17'1 1.0 1002.5 21.6
2017-Nov-21 16:00N 32°04' W 146°18'1 0.5 1002.2 21.6
2017-Nov-21 15:00N 32°04' W 146°19'1 1.0 1001.4 21.7
2017-Nov-21 14:00N 32°04' W 146°20'1 1.0 1001.2 21.7
2017-Nov-21 13:00N 32°04' W 146°21'0 0.0 1001.8 21.8
2017-Nov-21 12:00N 32°04' W 146°21'3 3.1 1001.8 21.8
2017-Nov-21 11:00N 32°04' W 146°25'1 0.2 1001.8 21.8
2017-Nov-21 07:00N 32°04' W 146°24'2 1.6 1001.0 21.8
2017-Nov-21 06:00N 32°05' W 146°26'1 0.6 1000.0 21.7
2017-Nov-21 05:00N 32°05' W 146°26'1 0.5 998.9 21.8
2017-Nov-21 04:00N 32°05' W 146°25'2 2.4 997.4 21.6
2017-Nov-21 03:00N 32°07' W 146°27'0 0.0 996.0 22.1
2017-Nov-21 01:00N 32°07' W 146°27'1 0.3 994.1 22.2
2017-Nov-20 23:00N 32°07' W 146°27'2 0.7 994.9 22.2
2017-Nov-20 20:00N 32°05' W 146°26'1 0.5 999.0 22.1
2017-Nov-20 19:00N 32°05' W 146°26'1 0.8 999.2 22.0
2017-Nov-20 18:00N 32°04' W 146°26'0 0.0 998.7 22.0
2017-Nov-20 17:00N 32°04' W 146°26'0 0.0 998.7 21.9
2017-Nov-20 16:00N 32°04' W 146°26'1 0.8 998.6 21.9
2017-Nov-20 15:00N 32°04' W 146°25'0 0.0 998.7 21.9
2017-Nov-20 14:00N 32°04' W 146°25'1 1.0 998.9 21.9
2017-Nov-20 13:00N 32°04' W 146°26'0 0.0 999.6 21.8
2017-Nov-20 12:00N 32°04' W 146°26'3 0.7 1000.0 21.6
2017-Nov-20 08:00N 32°02' W 146°29'1 0.5 1001.2 21.9
2017-Nov-20 07:00N 32°02' W 146°28'2 1.6 1001.0 22.0
2017-Nov-20 06:00N 32°01' W 146°29'1 0.8 1001.2 22.0
2017-Nov-20 05:00N 32°00' W 146°29'2 1.6 1000.9 22.0
2017-Nov-20 04:00N 31°59' W 146°30'2 1.8 1000.2 21.9
2017-Nov-20 03:00N 31°57' W 146°30'0 0.0 999.8 21.7
2017-Nov-20 02:00N 31°57' W 146°30'0 0.0 999.7 21.7
2017-Nov-20 01:00N 31°57' W 146°30'2 1.6 1000.0 21.9
2017-Nov-20 00:00N 31°56' W 146°31'0 0.0 1000.3 21.9
2017-Nov-19 23:00N 31°56' W 146°31'4 1.2 1001.2 21.9
2017-Nov-19 20:00N 31°53' W 146°34'2 1.9 1004.0 22.0
2017-Nov-19 19:00N 31°51' W 146°34'2 1.6 1004.2 22.0
2017-Nov-19 18:00N 31°50' W 146°36'2 2.5 1004.4 22.0
2017-Nov-19 17:00N 31°48' W 146°35'0 0.0 1004.1 22.1
2017-Nov-19 16:00N 31°48' W 146°35'0 0.0 1004.2 22.1
2017-Nov-19 15:00N 31°48' W 146°35'0 0.0 1003.8 22.1
2017-Nov-19 14:00N 31°48' W 146°35'1 0.5 1004.0 22.2
2017-Nov-19 13:00N 31°48' W 146°36'1 0.5 1004.4 22.2
2017-Nov-19 12:00N 31°48' W 146°37'2 0.5 1005.0 22.2
2017-Nov-19 08:00N 31°48' W 146°39'1 1.0 1007.3 22.2
2017-Nov-19 07:00N 31°48' W 146°40'1 0.5 1007.4 22.2
2017-Nov-19 06:00N 31°48' W 146°41'1 0.6 1006.9 22.3
2017-Nov-19 05:00N 31°47' W 146°41'1 0.8 1006.4 22.2
2017-Nov-19 04:00N 31°47' W 146°41'1 0.5 1006.0 22.3
2017-Nov-19 03:00N 31°47' W 146°42'1 1.2 1005.7 22.3
2017-Nov-19 02:00N 31°46' W 146°42'1 1.3 1005.5 22.4
2017-Nov-19 01:00N 31°44' W 146°43'0 0.0 1005.3 22.4
2017-Nov-19 00:00N 31°44' W 146°43'0 0.0 1005.7 22.4
2017-Nov-18 23:00N 31°44' W 146°43'2 0.8 1006.4 22.4
2017-Nov-18 20:00N 31°42' W 146°42'1 0.5 1008.9 22.2
2017-Nov-18 19:00N 31°42' W 146°41'1 1.3 1008.4 22.2
2017-Nov-18 18:00N 31°41' W 146°41'0 0.0 1009.2 22.1
2017-Nov-18 17:00N 31°41' W 146°41'1 0.8 1009.5 22.3
2017-Nov-18 16:00N 31°40' W 146°41'1 0.8 1008.8 22.3
2017-Nov-18 15:00N 31°40' W 146°41'1 0.8 1009.0 22.2
2017-Nov-18 14:00N 31°39' W 146°40'1 0.3 1008.5 22.2
2017-Nov-18 12:00N 31°39' W 146°41'5 1.0 1009.7 21.7
2017-Nov-18 07:00N 31°34' W 146°41'2 2.1 1013.0 21.6
2017-Nov-18 06:00N 31°34' W 146°38'1 0.8 1013.0 21.6
2017-Nov-18 05:00N 31°33' W 146°39'1 0.8 1013.3 21.6
2017-Nov-18 04:00N 31°32' W 146°38'1 1.0 1013.0 21.6
2017-Nov-18 03:00N 31°32' W 146°37'1 0.8 1013.1 21.6
2017-Nov-18 02:00N 31°32' W 146°37'1 0.8 1013.2 21.6
2017-Nov-18 01:00N 31°31' W 146°37'0 0.0 1013.5 22.0
2017-Nov-18 00:00N 31°31' W 146°37'2 2.5 1013.9 22.0
2017-Nov-17 23:00N 31°29' W 146°38'1 0.2 1014.2 22.1
2017-Nov-17 20:00N 31°28' W 146°38'1 0.6 1016.1 22.1
2017-Nov-17 19:00N 31°28' W 146°38'1 1.2 1016.4 22.1
2017-Nov-17 18:00N 31°27' W 146°37'1 1.2 1016.3 22.1
2017-Nov-17 17:00N 31°26' W 146°38'1 0.8 1016.2 22.1
2017-Nov-17 16:00N 31°26' W 146°37'1 1.3 1016.0 22.1
2017-Nov-17 15:00N 31°25' W 146°38'0 0.0 1015.9 22.0
2017-Nov-17 14:00N 31°25' W 146°38'1 1.3 1016.1 22.1
2017-Nov-17 13:00N 31°23' W 146°38'2 1.9 1016.4 22.1
2017-Nov-17 12:00N 31°22' W 146°40'0 0.0 1016.6 22.1
2017-Nov-17 07:00N 31°22' W 146°40'1 0.8 1018.7 22.2
2017-Nov-17 06:00N 31°22' W 146°40'1 0.8 1018.6 22.3
2017-Nov-17 05:00N 31°22' W 146°40'1 0.6 1018.5 22.3
2017-Nov-17 04:00N 31°22' W 146°40'1 0.6 1018.2 22.3
2017-Nov-17 03:00N 31°22' W 146°40'0 0.0 1018.2 22.3
2017-Nov-17 02:00N 31°22' W 146°40'1 0.6 1018.1 22.4
2017-Nov-17 01:00N 31°23' W 146°40'0 0.0 1018.0 22.4
2017-Nov-17 00:00N 31°23' W 146°40'3 3.0 1018.2 22.4
2017-Nov-16 23:00N 31°26' W 146°40'0 0.0 1018.6 22.4
2017-Nov-16 21:00N 31°26' W 146°40'1 0.8 1020.1 22.2
2017-Nov-16 20:00N 31°26' W 146°40'1 0.5 1020.8 22.1
2017-Nov-16 19:00N 31°26' W 146°41'1 0.5 1020.8 22.1
2017-Nov-16 18:00N 31°26' W 146°40'1 0.6 1020.6 22.0
2017-Nov-16 17:00N 31°27' W 146°40'0 0.0 1020.2 22.0
2017-Nov-16 16:00N 31°27' W 146°40'1 0.5 1019.7 21.9
2017-Nov-16 15:00N 31°27' W 146°40'1 1.2 1019.5 22.0
2017-Nov-16 14:00N 31°28' W 146°40'0 0.0 1019.5 22.2
2017-Nov-16 13:00N 31°28' W 146°40'3 3.2 1019.5 22.3
2017-Nov-16 12:00N 31°31' W 146°37'1 0.2 1019.7 22.4
2017-Nov-16 07:00N 31°31' W 146°36'0 0.0 1020.6 22.5
2017-Nov-16 06:00N 31°31' W 146°36'0 0.0 1020.4 22.5
2017-Nov-16 05:00N 31°31' W 146°36'1 0.8 1020.1 22.5
2017-Nov-16 04:00N 31°31' W 146°35'1 0.6 1019.7 22.5
2017-Nov-16 03:00N 31°32' W 146°35'0 0.0 1019.5 22.5
2017-Nov-16 00:00N 31°32' W 146°35'4 3.6 1019.0 22.5
2017-Nov-15 23:00N 31°35' W 146°35'0 0.0 1019.0 22.5
2017-Nov-15 22:00N 31°35' W 146°35'1 0.3 1019.6 22.5
2017-Nov-15 20:00N 31°35' W 146°36'1 0.8 1021.1 22.6
2017-Nov-15 19:00N 31°36' W 146°35'1 0.5 1021.0 22.6
2017-Nov-15 18:00N 31°36' W 146°35'1 1.3 1020.7 22.5
2017-Nov-15 17:00N 31°37' W 146°35'0 0.0 1020.4 22.5
2017-Nov-15 16:00N 31°37' W 146°35'1 0.8 1020.1 22.5
2017-Nov-15 15:00N 31°38' W 146°35'1 0.8 1019.8 22.5
2017-Nov-15 14:00N 31°38' W 146°34'3 2.7 1019.7 22.5
2017-Nov-15 13:00N 31°40' W 146°37'0 0.0 1019.8 22.4
2017-Nov-15 12:00N 31°40' W 146°37'1 0.3 1019.9 22.4
2017-Nov-15 08:00N 31°41' W 146°35'0 0.0 1021.2 22.4
2017-Nov-15 07:00N 31°41' W 146°35'1 0.5 1021.3 22.5
2017-Nov-15 06:00N 31°41' W 146°35'1 1.3 1021.0 22.5
2017-Nov-15 05:00N 31°42' W 146°34'1 0.5 1020.8 22.5
2017-Nov-15 04:00N 31°42' W 146°34'2 1.6 1020.4 22.5
2017-Nov-15 03:00N 31°43' W 146°32'1 1.2 1019.8 22.4
2017-Nov-15 02:00N 31°43' W 146°31'1 0.5 1019.3 22.2
2017-Nov-15 01:00N 31°43' W 146°31'1 1.2 1019.2 22.1
2017-Nov-15 00:00N 31°44' W 146°30'0 0.0 1019.2 22.0
2017-Nov-14 23:00N 31°44' W 146°30'2 2.4 1019.6 22.1
2017-Nov-14 22:00N 31°46' W 146°28'1 0.5 1020.2 22.1
2017-Nov-14 20:00N 31°46' W 146°27'2 1.6 1020.5 22.2
2017-Nov-14 19:00N 31°47' W 146°26'2 1.6 1021.2 22.2
2017-Nov-14 18:00N 31°47' W 146°24'0 0.0 1020.9 22.1
2017-Nov-14 17:00N 31°47' W 146°24'1 0.8 1020.5 22.1
2017-Nov-14 16:00N 31°47' W 146°25'3 2.7 1020.1 22.4
2017-Nov-14 15:00N 31°49' W 146°22'3 1.4 1019.8 22.6
2017-Nov-14 13:00N 31°50' W 146°20'0 0.0 1020.3 22.8
2017-Nov-14 11:00N 31°50' W 146°20'0 0.0 1020.4 22.7
2017-Nov-14 08:00N 31°50' W 146°20'   1021.3 22.8

Dump ship's entire track history